Disclaimer

Please do not use the information listed here in-flight or in-navigation, as they are not provided to us by the airports but are provided by volunteers, so they might be outdated.

Search


Regions


Airport information page

Radio informations:
LANDI TWR - 119.2 MHz
Automatic Terminal Information Service (ATIS) - 142.225 MHz
LANDI APP - 122.4 MHz

Airport informations:
Latitude: 48° 31' 48.93" N
Longitude: 004° 09' 05.91" W
Elevation: 348 feet - 106 meters
Operating hours: Remarks
Operating agency: Military
Timezone: UTC+1(+2DT) - Last Sunday in March to last Sunday in October
Fuel: Jet A1+, Jet A1 with icing inhibitor.

Runway information:
08/26 - 8858 x 148 feet< - >2700 x 45 meters

Recent METARs:
LFRJ 181900Z AUTO 08011KT CAVOK 06/03 Q1017
LFRJ 181930Z AUTO 08012KT CAVOK 06/03 Q1017
LFRJ 182000Z AUTO 09012KT CAVOK 06/03 Q1017

Airport on the map: